KMCI/MCI METAR and TAF weather

Enter ICAO airport designator
Station Type Date Time Source
KMCI METAR 2019/08/20 08:53 UTC NOAA

KMCI 200853Z 20011KT 10SM BKN150 27/24 A2993 RMK AO2 SLP122 T02670239 58014


Station Type Date Time Source
KMCI Decoded METAR 2019/08/20 08:53 UTC NOAA

KANSAS CITY INTERNATIONAL AIRPORT, MO, United States (KMCI) 39-18N 94-44W 320M
Aug 20, 2019 - 04:53 AM EDT / 2019.08.20 0853 UTC
Wind: from the SSW (200 degrees) at 13 MPH (11 KT):0
Visibility: 10 mile(s):0
Sky conditions: mostly cloudy
Temperature: 80.1 F (26.7 C)
Dew Point: 75.0 F (23.9 C)
Relative Humidity: 84%
Pressure (altimeter): 29.93 in. Hg (1013 hPa)
Pressure tendency: 0.04 inches (1.4 hPa) lower than three hours ago
ob: KMCI 200853Z 20011KT 10SM BKN150 27/24 A2993 RMK AO2 SLP122 T02670239 58014
cycle: 9

Station Type Date Time Source
KMCI TAF 2019/08/20 06:22 UTC NOAA

TAF KMCI 200520Z 2006/2106 15008KT P6SM SCT200
FM201500 20008KT P6SM BKN200

Example: see airport list